Time;durP1;ratioP1;P1;durP2;ratioP2;P2;SDS_P1;SDS_P2;PMS_P1;PMS_P2;Temp;Humidity;BMP_temperature;BMP_pressure;BME280_temperature;BME280_humidity;BME280_pressure;Samples;Min_cycle;Max_cycle;Signal;HPM_P1;HPM_P2
2022/03/19 00:01:23;;;;;;;27.02;18.58;;;;;;;9.86;59.29;103141.94;4948425;29;20047;-83
2022/03/19 00:03:50;;;;;;;21.90;18.65;;;;;;;9.91;58.79;103158.50;4949091;28;20051;-81
2022/03/19 00:06:17;;;;;;;30.83;19.55;;;;;;;9.85;59.15;103161.44;4948361;29;20059;-82
2022/03/19 00:08:43;;;;;;;24.45;19.50;;;;;;;8.77;59.08;102985.91;4958192;28;20118;-81
2022/03/19 00:11:10;;;;;;;26.30;19.70;;;;;;;9.49;59.24;103124.13;4963502;28;20146;-83
2022/03/19 00:13:37;;;;;;;25.33;20.67;;;;;;;9.54;59.55;103143.34;4958944;28;20496;-82
2022/03/19 00:16:05;;;;;;;22.90;18.30;;;;;;;9.57;60.03;103149.41;4972512;28;20063;-83
2022/03/19 00:18:31;;;;;;;26.30;19.73;;;;;;;9.57;59.98;103162.66;4949464;28;20047;-82
2022/03/19 00:20:58;;;;;;;26.27;18.45;;;;;;;9.55;60.22;103161.00;4979440;28;20054;-84
2022/03/19 00:23:25;;;;;;;25.67;19.60;;;;;;;9.19;59.72;103101.56;4952866;28;20093;-84
2022/03/19 00:25:52;;;;;;;25.73;18.42;;;;;;;8.94;59.89;103063.81;4950424;28;20050;-81
2022/03/19 00:28:19;;;;;;;22.67;19.95;;;;;;;9.37;59.75;103146.78;4967928;28;20145;-81
2022/03/19 00:30:49;;;;;;;23.67;18.88;;;;;;;9.43;59.90;103157.09;4961868;28;20046;-82
2022/03/19 00:33:15;;;;;;;24.30;19.00;;;;;;;9.34;59.62;103138.94;4949225;28;20074;-83
2022/03/19 00:35:42;;;;;;;25.35;19.15;;;;;;;9.41;59.54;103157.16;4948229;29;20083;-83
2022/03/19 00:38:09;;;;;;;25.20;20.08;;;;;;;8.77;59.99;103057.44;4947981;29;20110;-83
2022/03/19 00:40:36;;;;;;;23.77;19.20;;;;;;;9.12;60.72;103118.66;4979938;28;20131;-84
2022/03/19 00:43:02;;;;;;;28.77;19.80;;;;;;;9.36;60.27;103153.00;4967202;28;20592;-82
2022/03/19 00:45:29;;;;;;;23.95;19.48;;;;;;;9.14;60.33;103123.91;4983129;28;20485;-82
2022/03/19 00:47:56;;;;;;;24.63;19.38;;;;;;;9.14;59.88;103129.19;4966934;28;20079;-82
2022/03/19 00:50:23;;;;;;;25.45;20.63;;;;;;;9.37;59.80;103173.28;4966898;28;20141;-83
2022/03/19 00:52:50;;;;;;;26.65;21.92;;;;;;;9.07;59.31;103125.06;4967477;28;20055;-82
2022/03/19 00:55:16;;;;;;;22.50;20.15;;;;;;;9.36;59.01;103160.94;4968412;28;20058;-81
2022/03/19 00:57:45;;;;;;;27.38;21.98;;;;;;;9.23;59.16;103149.16;4966798;28;20070;-81
2022/03/19 01:00:15;;;;;;;24.95;22.33;;;;;;;9.23;59.19;103154.47;4947970;29;20078;-81
2022/03/19 01:02:43;;;;;;;24.83;21.98;;;;;;;9.34;58.60;103173.41;4947621;29;20127;-82
2022/03/19 01:05:12;;;;;;;24.35;21.00;;;;;;;9.20;58.79;103166.06;4963835;28;20110;-82
2022/03/19 01:07:47;;;;;;;28.95;20.67;;;;;;;9.09;58.84;103136.47;4947687;28;20051;-82
2022/03/19 01:10:20;;;;;;;23.95;20.63;;;;;;;9.11;58.99;103151.38;4947712;29;20110;-82
2022/03/19 01:12:48;;;;;;;23.90;19.58;;;;;;;9.14;59.44;103151.25;4964106;28;20051;-82
2022/03/19 01:15:15;;;;;;;24.05;21.23;;;;;;;9.15;59.50;103162.72;4963660;28;20051;-82
2022/03/19 01:17:43;;;;;;;27.88;21.67;;;;;;;8.78;59.27;103122.72;4947681;29;20051;-81
2022/03/19 01:20:13;;;;;;;24.50;21.35;;;;;;;9.09;59.25;103169.13;4947736;28;20051;-82
2022/03/19 01:22:42;;;;;;;27.23;21.15;;;;;;;9.04;59.09;103171.13;4947831;28;20053;-82
2022/03/19 01:25:10;;;;;;;26.80;21.27;;;;;;;9.05;59.36;103167.53;4947663;29;20146;-81
2022/03/19 01:27:39;;;;;;;22.52;19.63;;;;;;;9.04;59.08;103157.88;4947609;28;20133;-81
2022/03/19 01:30:07;;;;;;;24.13;20.83;;;;;;;9.11;58.29;103169.94;4950037;28;20498;-82
2022/03/19 01:32:35;;;;;;;25.25;20.08;;;;;;;8.92;58.60;103137.19;4967189;28;20130;-81
2022/03/19 01:35:02;;;;;;;26.85;20.45;;;;;;;9.04;58.80;103162.31;4968373;28;20039;-81
2022/03/19 01:37:28;;;;;;;23.48;19.77;;;;;;;8.22;59.55;103033.19;4966850;28;20051;-81
2022/03/19 01:39:56;;;;;;;22.23;19.90;;;;;;;8.98;59.20;103166.94;4973866;28;20089;-81
2022/03/19 01:42:33;;;;;;;27.23;19.73;;;;;;;8.93;59.17;103158.34;4989883;28;20050;-83
2022/03/19 01:45:01;;;;;;;25.27;20.92;;;;;;;8.93;58.77;103163.63;4971389;28;20042;-84
2022/03/19 01:47:29;;;;;;;22.75;20.33;;;;;;;8.44;58.58;103080.88;4969891;28;20061;-83
2022/03/19 01:49:58;;;;;;;25.52;22.30;;;;;;;8.71;59.01;103138.91;4970165;28;20468;-83
2022/03/19 01:52:31;;;;;;;25.63;21.20;;;;;;;8.79;59.38;103165.97;4971124;28;20149;-83
2022/03/19 01:54:59;;;;;;;25.33;21.70;;;;;;;8.56;60.02;103153.63;4986375;28;20051;-83
2022/03/19 01:57:30;;;;;;;26.20;22.00;;;;;;;8.52;59.52;103149.41;4969634;28;20077;-84
2022/03/19 01:59:57;;;;;;;24.55;21.85;;;;;;;8.18;59.61;103092.47;4970529;28;20047;-83
2022/03/19 02:02:26;;;;;;;27.70;22.75;;;;;;;8.49;58.77;103142.41;4970355;28;20058;-84
2022/03/19 02:04:53;;;;;;;25.20;22.38;;;;;;;8.48;59.40;103155.75;4969837;28;20054;-83
2022/03/19 02:07:20;;;;;;;29.45;23.20;;;;;;;8.43;59.96;103157.72;4970178;28;20055;-83
2022/03/19 02:09:47;;;;;;;25.38;21.35;;;;;;;8.21;60.04;103137.34;4970051;28;20068;-81
2022/03/19 02:12:13;;;;;;;27.80;21.88;;;;;;;8.41;60.17;103164.84;4969563;28;20058;-83
2022/03/19 02:14:40;;;;;;;25.73;22.00;;;;;;;8.29;59.91;103147.63;4969737;28;20491;-82
2022/03/19 02:17:09;;;;;;;23.25;20.83;;;;;;;7.73;60.04;103058.91;4969600;28;20564;-81
2022/03/19 02:19:57;;;;;;;25.90;21.48;;;;;;;8.09;60.03;103138.66;4971370;28;20134;-82
2022/03/19 02:22:26;;;;;;;27.25;21.63;;;;;;;8.26;60.77;103180.34;4970280;28;20341;-82
2022/03/19 02:27:39;;;;;;;25.83;21.45;;;;;;;8.41;59.76;103165.69;4970400;28;20089;-82
2022/03/19 02:30:10;;;;;;;27.13;23.05;;;;;;;7.95;59.91;103097.78;4966663;28;20130;-82
2022/03/19 02:32:40;;;;;;;35.47;23.27;;;;;;;8.32;59.69;103181.91;4965870;28;20051;-84
2022/03/19 02:35:07;;;;;;;28.25;22.73;;;;;;;8.15;60.31;103158.72;4951371;28;20049;-83
2022/03/19 02:37:46;;;;;;;31.02;22.70;;;;;;;8.06;60.70;103144.06;4965687;28;20043;-83
2022/03/19 02:40:15;;;;;;;26.48;23.33;;;;;;;8.10;60.29;103152.75;4965835;28;20138;-84
2022/03/19 02:42:49;;;;;;;26.98;22.23;;;;;;;7.66;60.43;103081.22;4965581;28;20394;-84
2022/03/19 02:45:15;;;;;;;28.33;22.70;;;;;;;8.25;59.76;103178.66;4949708;29;20577;-84
2022/03/19 02:48:15;;;;;;;26.70;23.33;;;;;;;8.19;60.06;103168.28;4949855;29;20146;-84
2022/03/19 02:50:37;;;;;;;30.15;23.60;;;;;;;8.00;60.60;103127.56;4950616;28;20600;-83
2022/03/19 02:53:10;;;;;;;36.08;23.90;;;;;;;8.17;60.57;103171.91;4969212;28;20130;-84
2022/03/19 02:55:39;;;;;;;27.00;24.10;;;;;;;8.14;60.95;103164.94;4955876;28;20480;-83
2022/03/19 02:58:07;;;;;;;30.40;24.13;;;;;;;8.09;60.62;103148.38;4975008;28;20161;-84
2022/03/19 03:00:35;;;;;;;27.98;22.88;;;;;;;7.62;60.94;103087.53;4965633;28;20110;-83
2022/03/19 03:03:04;;;;;;;27.75;23.45;;;;;;;8.07;60.64;103160.81;4963695;28;20398;-83
2022/03/19 03:05:33;;;;;;;28.77;23.92;;;;;;;7.66;60.78;103087.38;4969201;28;20065;-84
2022/03/19 03:08:00;;;;;;;28.23;24.00;;;;;;;8.14;60.40;103167.59;4968329;28;20134;-83
2022/03/19 03:10:28;;;;;;;28.90;23.63;;;;;;;8.04;60.47;103156.50;4955709;28;20146;-83
2022/03/19 03:12:54;;;;;;;29.70;23.92;;;;;;;8.13;60.83;103168.50;4969093;28;20054;-84
2022/03/19 03:15:21;;;;;;;30.48;23.98;;;;;;;7.90;60.70;103143.78;4967972;28;20047;-83
2022/03/19 03:17:48;;;;;;;29.10;23.40;;;;;;;8.10;60.83;103176.56;4967645;28;20055;-84
2022/03/19 03:20:14;;;;;;;28.88;23.50;;;;;;;8.12;60.50;103174.72;4968692;28;20129;-83
2022/03/19 03:22:44;;;;;;;28.10;23.88;;;;;;;8.06;60.36;103175.81;4968842;28;20051;-83
2022/03/19 03:25:11;;;;;;;29.80;23.38;;;;;;;7.88;61.11;103161.47;4983091;28;20054;-83
2022/03/19 03:27:38;;;;;;;28.65;23.38;;;;;;;7.41;60.51;103079.47;4962005;28;20138;-83
2022/03/19 03:30:05;;;;;;;34.10;25.38;;;;;;;7.98;60.67;103182.31;4947899;29;20145;-83
2022/03/19 03:32:32;;;;;;;30.73;25.65;;;;;;;7.83;60.70;103189.88;4970164;28;20047;-83
2022/03/19 03:34:58;;;;;;;32.08;25.13;;;;;;;7.75;61.13;103189.31;4952826;28;20063;-83
2022/03/19 03:37:25;;;;;;;28.45;24.58;;;;;;;7.75;61.07;103181.38;4977458;28;20043;-83
2022/03/19 03:39:51;;;;;;;27.60;23.75;;;;;;;7.72;61.31;103176.19;4980629;28;20568;-83
2022/03/19 03:42:18;;;;;;;29.77;23.67;;;;;;;7.71;61.31;103171.81;4959466;28;20051;-83
2022/03/19 03:44:45;;;;;;;29.60;24.13;;;;;;;7.67;61.49;103172.81;4972766;28;20102;-84
2022/03/19 03:47:11;;;;;;;29.73;24.30;;;;;;;7.64;61.75;103172.94;4955566;28;20150;-83
2022/03/19 03:49:38;;;;;;;32.58;24.55;;;;;;;7.47;61.27;103126.81;4965831;28;20497;-82
2022/03/19 03:52:07;;;;;;;28.98;23.42;;;;;;;7.69;61.46;103173.63;4948741;29;20086;-83
2022/03/19 03:54:34;;;;;;;28.10;23.13;;;;;;;6.96;61.44;103069.59;4949113;29;20086;-83
2022/03/19 03:57:00;;;;;;;25.25;22.45;;;;;;;7.62;61.57;103165.09;4948428;29;20093;-82
2022/03/19 03:59:30;;;;;;;33.78;23.58;;;;;;;7.32;61.45;103130.00;4962364;28;20074;-84
2022/03/19 04:01:57;;;;;;;28.45;22.92;;;;;;;7.57;61.56;103172.28;4966910;28;20051;-83
2022/03/19 04:04:24;;;;;;;26.73;23.35;;;;;;;7.05;61.19;103084.28;4967531;28;20043;-82
2022/03/19 04:06:51;;;;;;;27.90;23.85;;;;;;;7.24;61.38;103126.78;4962502;28;20057;-83
2022/03/19 04:09:17;;;;;;;34.97;23.73;;;;;;;7.53;61.82;103180.41;4959358;28;20078;-83
2022/03/19 04:11:44;;;;;;;27.33;23.85;;;;;;;7.32;61.53;103143.22;4953778;28;20067;-84
2022/03/19 04:14:10;;;;;;;28.90;25.05;;;;;;;7.25;61.74;103133.78;4948642;29;20082;-82
2022/03/19 04:16:37;;;;;;;28.27;23.17;;;;;;;7.20;61.67;103139.22;4967037;28;20078;-83
2022/03/19 04:19:05;;;;;;;29.95;25.80;;;;;;;7.15;62.30;103133.22;4967546;28;20051;-83
2022/03/19 04:21:31;;;;;;;36.10;24.80;;;;;;;7.34;62.36;103169.59;4983906;28;20078;-82
2022/03/19 04:23:58;;;;;;;32.58;24.15;;;;;;;7.39;62.16;103172.94;4958197;28;20142;-83
2022/03/19 04:26:24;;;;;;;26.42;23.23;;;;;;;7.33;62.28;103179.31;4948120;29;20147;-83
2022/03/19 04:28:51;;;;;;;31.70;25.38;;;;;;;7.35;62.31;103177.47;4947645;29;20576;-83
2022/03/19 04:31:18;;;;;;;28.27;24.05;;;;;;;7.35;62.16;103180.09;4948978;28;20091;-83
2022/03/19 04:33:44;;;;;;;31.48;24.75;;;;;;;7.10;62.13;103139.59;4948066;29;20549;-83
2022/03/19 04:39:00;;;;;;;30.38;26.13;;;;;;;7.38;62.02;103182.66;4950392;29;20485;-82
2022/03/19 04:41:27;;;;;;;32.75;26.05;;;;;;;7.11;61.90;103136.03;4967288;28;20051;-83
2022/03/19 04:43:53;;;;;;;33.95;28.60;;;;;;;6.90;62.05;103108.59;4991896;28;20038;-84
2022/03/19 04:46:20;;;;;;;32.90;26.33;;;;;;;7.25;62.17;103160.19;5001276;28;20050;-83
2022/03/19 04:48:48;;;;;;;32.10;27.30;;;;;;;7.23;62.16;103164.66;4967494;28;20050;-83
2022/03/19 04:51:17;;;;;;;35.50;26.45;;;;;;;7.26;62.05;103180.44;4967253;28;20057;-83
2022/03/19 04:53:50;;;;;;;27.80;24.67;;;;;;;7.12;62.71;103170.31;4983515;28;20047;-83
2022/03/19 04:56:19;;;;;;;30.25;25.75;;;;;;;6.90;62.75;103149.06;4968612;28;20149;-83
2022/03/19 04:58:46;;;;;;;31.73;25.95;;;;;;;7.13;62.60;103181.75;4971261;28;20143;-84
2022/03/19 05:01:13;;;;;;;30.63;26.20;;;;;;;7.12;62.89;103172.97;4973164;28;20142;-82
2022/03/19 05:03:40;;;;;;;30.05;25.42;;;;;;;7.07;62.84;103173.13;4969262;28;20268;-83
2022/03/19 05:06:07;;;;;;;33.08;25.67;;;;;;;7.07;62.73;103181.03;4967844;28;20043;-83
2022/03/19 05:08:33;;;;;;;33.85;26.15;;;;;;;6.95;62.76;103162.97;4968114;28;20063;-83
2022/03/19 05:11:12;;;;;;;32.22;26.73;;;;;;;6.99;62.65;103161.97;4967248;28;20082;-83
2022/03/19 05:13:44;;;;;;;31.58;26.13;;;;;;;6.33;62.67;103050.56;4968675;28;20046;-83
2022/03/19 05:16:11;;;;;;;;;;;;;;;6.97;63.31;103187.56;4953720;28;20465;-83
2022/03/19 05:18:39;;;;;;;32.75;26.48;;;;;;;6.90;62.73;103154.34;4951294;29;20292;-83
2022/03/19 05:21:06;;;;;;;32.05;26.67;;;;;;;6.88;62.74;103153.50;4955094;28;20122;-82
2022/03/19 05:23:36;;;;;;;32.80;26.08;;;;;;;7.03;62.85;103184.69;4967804;28;20133;-84
2022/03/19 05:26:03;;;;;;;34.45;26.13;;;;;;;7.04;63.11;103178.50;4951270;29;20047;-82
2022/03/19 05:28:29;;;;;;;29.65;25.30;;;;;;;6.78;63.11;103138.88;4956449;28;20097;-84
2022/03/19 05:31:16;;;;;;;31.48;25.83;;;;;;;7.03;63.16;103184.69;4971052;28;20489;-83
2022/03/19 05:36:28;;;;;;;38.13;28.38;;;;;;;6.39;62.29;103057.44;4970052;28;20051;-83
2022/03/19 05:38:55;;;;;;;36.42;28.45;;;;;;;6.72;63.06;103142.56;4952281;28;20134;-83
2022/03/19 05:41:21;;;;;;;32.05;25.95;;;;;;;6.78;62.99;103138.88;4951995;28;20320;-83
2022/03/19 05:43:48;;;;;;;31.65;27.13;;;;;;;6.58;63.09;103110.50;4966997;28;20086;-82
2022/03/19 05:46:15;;;;;;;34.15;27.83;;;;;;;7.10;62.76;103193.28;4952497;28;20061;-82
2022/03/19 05:48:42;;;;;;;35.10;26.25;;;;;;;7.05;63.16;103200.50;4954770;28;20079;-82
2022/03/19 05:51:09;;;;;;;36.03;27.65;;;;;;;7.06;63.05;103189.00;4955556;28;20442;-82
2022/03/19 05:53:36;;;;;;;31.23;27.00;;;;;;;7.06;62.90;103187.25;4955096;28;20619;-82
2022/03/19 05:56:03;;;;;;;35.15;28.20;;;;;;;7.16;62.76;103197.50;4970609;28;20137;-82
2022/03/19 05:58:29;;;;;;;33.80;26.75;;;;;;;7.02;63.02;103168.91;4971393;28;20053;-82
2022/03/19 06:00:56;;;;;;;36.90;28.00;;;;;;;7.04;62.71;103172.38;4969982;28;20047;-82
2022/03/19 06:03:23;;;;;;;40.83;29.20;;;;;;;7.21;62.18;103198.22;4969708;28;20055;-82
2022/03/19 06:05:50;;;;;;;35.78;28.60;;;;;;;7.19;62.57;103187.69;4969949;28;20049;-82
2022/03/19 06:08:16;;;;;;;36.10;29.67;;;;;;;7.07;63.02;103178.41;4970558;28;20082;-81
2022/03/19 06:10:43;;;;;;;40.25;28.95;;;;;;;7.21;62.50;103192.94;4969712;28;20078;-82
2022/03/19 06:13:09;;;;;;;37.75;29.88;;;;;;;6.76;62.65;103114.31;4970692;28;20054;-83
2022/03/19 06:15:36;;;;;;;37.35;28.42;;;;;;;7.26;62.57;103194.50;4969087;28;20580;-82
2022/03/19 06:18:02;;;;;;;40.65;30.52;;;;;;;7.40;62.25;103199.34;4985530;28;20097;-82
2022/03/19 06:20:29;;;;;;;36.22;29.45;;;;;;;7.33;62.54;103197.81;4969586;28;20121;-82
2022/03/19 06:22:57;;;;;;;38.88;30.55;;;;;;;7.36;62.03;103200.34;4970371;28;20461;-83
2022/03/19 06:25:24;;;;;;;33.80;29.92;;;;;;;7.41;62.12;103195.75;4968433;28;20113;-83
2022/03/19 06:27:50;;;;;;;35.20;28.48;;;;;;;6.83;61.90;103105.28;4982768;28;20058;-83
2022/03/19 06:30:17;;;;;;;37.83;27.63;;;;;;;7.31;61.67;103165.28;4950393;28;20142;-82
2022/03/19 06:32:43;;;;;;;35.17;27.60;;;;;;;7.26;61.75;103146.09;4950106;29;20138;-82
2022/03/19 06:35:10;;;;;;;35.03;26.60;;;;;;;7.14;61.15;103106.88;4966313;28;20051;-82
2022/03/19 06:37:37;;;;;;;31.83;24.50;;;;;;;7.45;61.24;103164.78;4951290;28;20134;-82
2022/03/19 06:40:07;;;;;;;26.98;24.15;;;;;;;7.67;60.80;103175.47;4951874;28;20486;-83
2022/03/19 06:42:34;;;;;;;34.10;25.73;;;;;;;7.72;61.04;103181.50;4949922;29;20048;-83
2022/03/19 06:45:01;;;;;;;35.42;26.55;;;;;;;7.48;61.25;103157.63;4950379;29;20051;-82
2022/03/19 06:47:28;;;;;;;27.13;23.70;;;;;;;7.63;61.23;103180.03;4949549;29;20085;-83
2022/03/19 06:49:54;;;;;;;29.63;24.55;;;;;;;7.54;61.10;103150.41;4950215;28;20513;-83
2022/03/19 06:52:24;;;;;;;33.25;25.02;;;;;;;7.42;61.31;103130.56;4950334;28;20051;-81
2022/03/19 06:54:50;;;;;;;34.55;25.40;;;;;;;7.74;61.21;103178.75;4950244;29;20101;-81
2022/03/19 06:57:17;;;;;;;29.30;25.13;;;;;;;7.35;60.96;103100.81;4949688;29;20505;-81
2022/03/19 06:59:44;;;;;;;31.42;25.88;;;;;;;7.43;61.07;103101.44;4950110;28;20047;-83
2022/03/19 07:02:10;;;;;;;34.05;26.83;;;;;;;7.66;60.79;103128.81;4949375;29;20067;-83
2022/03/19 07:04:37;;;;;;;32.35;26.10;;;;;;;7.60;60.89;103115.84;4949763;29;20085;-83
2022/03/19 07:07:04;;;;;;;34.00;26.70;;;;;;;7.69;60.45;103124.28;4949687;29;20043;-83
2022/03/19 07:09:31;;;;;;;34.67;26.80;;;;;;;7.94;60.29;103160.41;4948393;29;20314;-82
2022/03/19 07:11:57;;;;;;;30.35;26.58;;;;;;;7.58;60.79;103104.44;4948851;29;20061;-84
2022/03/19 07:14:29;;;;;;;31.45;26.25;;;;;;;7.95;60.62;103161.25;4949899;28;20047;-81
2022/03/19 07:16:56;;;;;;;35.63;27.73;;;;;;;7.88;60.36;103150.91;4949802;28;20043;-82
2022/03/19 07:19:23;;;;;;;33.35;27.98;;;;;;;7.65;60.56;103106.81;4948629;28;20047;-83
2022/03/19 07:21:50;;;;;;;38.08;27.90;;;;;;;7.94;60.72;103155.13;4948513;28;20079;-83
2022/03/19 07:24:16;;;;;;;36.33;28.23;;;;;;;7.93;60.42;103148.94;4950173;28;20494;-82
2022/03/19 07:26:43;;;;;;;34.38;28.38;;;;;;;8.01;60.43;103155.72;4951497;28;20494;-82
2022/03/19 07:29:10;;;;;;;30.13;26.85;;;;;;;7.73;60.41;103109.16;4949349;28;20059;-83
2022/03/19 07:31:37;;;;;;;28.98;24.45;;;;;;;8.01;60.14;103139.84;4950579;28;20086;-82
2022/03/19 07:34:04;;;;;;;30.75;25.92;;;;;;;8.12;60.28;103150.91;4950697;29;20372;-83
2022/03/19 07:36:31;;;;;;;31.58;26.10;;;;;;;7.57;60.30;103058.63;4950661;28;20122;-83
2022/03/19 07:38:57;;;;;;;33.78;26.45;;;;;;;7.87;59.58;103101.59;4953853;29;20051;-82
2022/03/19 07:44:09;;;;;;;33.90;26.80;;;;;;;8.21;60.49;103153.22;4950366;28;20047;-82
2022/03/19 07:46:36;;;;;;;36.13;24.20;;;;;;;8.28;59.47;103165.28;4948561;28;20047;-83
2022/03/19 07:49:03;;;;;;;34.35;26.27;;;;;;;8.37;59.58;103157.91;4949723;28;20053;-83
2022/03/19 07:51:30;;;;;;;32.40;23.75;;;;;;;8.35;59.41;103140.31;4966249;28;20364;-84
2022/03/19 07:53:57;;;;;;;32.72;23.80;;;;;;;8.42;59.40;103146.22;4954737;29;20055;-83
2022/03/19 07:56:24;;;;;;;29.35;22.88;;;;;;;8.27;59.59;103094.72;4951253;28;20051;-83
2022/03/19 07:58:52;;;;;;;25.60;21.15;;;;;;;8.59;59.45;103142.06;4954662;28;20110;-84
2022/03/19 08:01:19;;;;;;;24.48;18.50;;;;;;;8.82;58.61;103149.94;4958713;29;20137;-81
2022/03/19 08:03:48;;;;;;;29.30;20.48;;;;;;;8.39;58.25;103088.09;4963171;29;20081;-84
2022/03/19 08:06:15;;;;;;;26.17;20.27;;;;;;;8.47;58.05;103074.56;4952063;28;20298;-83
2022/03/19 08:08:41;;;;;;;25.45;19.52;;;;;;;8.90;57.94;103139.88;4964251;28;20121;-83
2022/03/19 08:11:09;;;;;;;27.63;19.20;;;;;;;8.63;57.85;103086.28;4964272;28;20083;-81
2022/03/19 08:13:35;;;;;;;20.50;18.30;;;;;;;8.92;57.77;103129.25;4947704;29;20487;-82
2022/03/19 08:16:03;;;;;;;26.23;19.42;;;;;;;8.88;57.67;103103.78;4947093;28;20051;-82
2022/03/19 08:18:30;;;;;;;25.48;19.63;;;;;;;8.84;58.38;103113.66;4948644;28;20054;-82
2022/03/19 08:20:58;;;;;;;23.27;19.98;;;;;;;8.83;58.38;103097.81;4948136;29;20135;-83
2022/03/19 08:23:25;;;;;;;24.67;18.00;;;;;;;8.89;58.64;103102.88;4947728;29;20126;-83
2022/03/19 08:25:52;;;;;;;24.35;18.17;;;;;;;9.12;58.29;103121.28;4950706;29;20438;-84
2022/03/19 08:28:19;;;;;;;19.17;16.50;;;;;;;9.26;57.69;103119.84;4947323;29;20051;-83
2022/03/19 08:30:45;;;;;;;25.35;16.23;;;;;;;8.87;57.17;103057.91;4948156;29;20142;-83
2022/03/19 08:33:13;;;;;;;20.05;15.77;;;;;;;8.53;57.32;102989.63;4964963;28;20075;-83
2022/03/19 08:35:40;;;;;;;20.35;16.63;;;;;;;9.34;57.09;103107.13;4964299;28;20117;-84
2022/03/19 08:40:52;;;;;;;19.88;16.83;;;;;;;9.42;57.07;103112.97;4948642;28;20135;-83
2022/03/19 08:43:18;;;;;;;29.55;16.90;;;;;;;9.45;57.34;103112.81;4947478;29;20130;-82
2022/03/19 08:45:45;;;;;;;18.73;16.27;;;;;;;9.27;57.17;103050.00;4948337;28;20408;-82
2022/03/19 08:48:13;;;;;;;20.15;17.65;;;;;;;9.56;56.99;103076.09;4947502;28;20057;-82
2022/03/19 08:50:40;;;;;;;26.98;16.50;;;;;;;9.55;57.13;103082.31;4952034;28;20051;-84
2022/03/19 08:53:06;;;;;;;22.45;17.25;;;;;;;9.74;56.14;103094.75;4977091;28;20043;-80
2022/03/19 08:55:33;;;;;;;23.23;17.45;;;;;;;9.84;56.07;103096.03;4953691;29;20059;-81
2022/03/19 08:58:00;;;;;;;22.48;16.67;;;;;;;9.91;55.90;103092.19;4960944;29;20083;-80
2022/03/19 09:00:30;;;;;;;22.50;16.35;;;;;;;9.98;55.64;103093.59;4954048;29;20106;-85
2022/03/19 09:02:57;;;;;;;21.85;15.80;;;;;;;10.03;55.95;103088.94;4953872;28;20055;-81
2022/03/19 09:05:27;;;;;;;19.00;15.70;;;;;;;10.17;55.29;103083.00;4951500;28;20071;-84
2022/03/19 09:07:54;;;;;;;19.48;15.90;;;;;;;10.19;54.15;103077.59;4968088;28;20521;-83
2022/03/19 09:10:21;;;;;;;19.58;15.45;;;;;;;10.25;54.92;103082.63;4950717;29;20051;-85
2022/03/19 09:12:47;;;;;;;17.50;15.68;;;;;;;10.16;54.04;103062.66;4967162;28;20055;-82
2022/03/19 09:15:17;;;;;;;19.17;14.52;;;;;;;10.42;52.63;103074.72;4952881;29;20384;-83
2022/03/19 09:17:44;;;;;;;17.17;14.35;;;;;;;10.12;52.38;103023.06;4953183;28;20055;-82
2022/03/19 09:20:11;;;;;;;16.52;14.75;;;;;;;10.64;52.59;103066.56;4950790;28;20124;-82
2022/03/19 09:22:37;;;;;;;17.85;14.88;;;;;;;10.70;52.48;103054.75;4950789;28;20055;-84
2022/03/19 09:25:05;;;;;;;18.98;15.77;;;;;;;10.87;51.41;103069.84;4953776;28;20055;-83
2022/03/19 09:27:31;;;;;;;24.52;15.23;;;;;;;11.04;51.54;103061.84;4950383;28;20047;-84
2022/03/19 09:29:58;;;;;;;20.73;16.00;;;;;;;11.04;50.66;103013.16;4986204;28;20047;-84
2022/03/19 09:32:28;;;;;;;19.02;15.27;;;;;;;11.33;50.35;103056.81;4986161;28;20054;-84
2022/03/19 09:34:55;;;;;;;18.27;15.02;;;;;;;11.45;50.73;103049.97;4986110;28;20078;-85
2022/03/19 09:37:22;;;;;;;20.75;14.98;;;;;;;11.60;50.46;103049.16;4971437;28;20404;-84
2022/03/19 09:39:49;;;;;;;23.10;16.67;;;;;;;11.70;50.35;103045.06;4973602;28;20378;-83
2022/03/19 09:42:17;;;;;;;21.30;15.73;;;;;;;11.87;49.23;103036.19;4969671;28;20057;-84
2022/03/19 09:44:44;;;;;;;22.00;15.43;;;;;;;12.11;48.74;103039.28;4970744;28;20063;-84
2022/03/19 09:47:14;;;;;;;15.30;12.93;;;;;;;11.92;46.72;102985.34;4970970;28;20054;-84
2022/03/19 09:49:41;;;;;;;15.07;13.55;;;;;;;12.41;46.82;103033.13;4969780;28;20312;-84
2022/03/19 09:52:11;;;;;;;16.25;13.55;;;;;;;12.33;45.79;102984.75;4969465;28;20168;-86
2022/03/19 09:54:39;;;;;;;15.57;13.90;;;;;;;11.69;44.86;102849.09;4968954;28;20150;-82
2022/03/19 09:57:06;;;;;;;13.88;12.45;;;;;;;12.75;44.75;103008.00;4970518;28;20519;-82
2022/03/19 09:59:36;;;;;;;16.17;12.40;;;;;;;13.05;43.43;103018.59;4971686;28;20129;-82
2022/03/19 10:02:10;;;;;;;16.05;11.57;;;;;;;13.10;41.36;103021.00;4971883;28;20133;-84
2022/03/19 10:04:40;;;;;;;16.85;13.65;;;;;;;12.33;41.14;102888.84;4973031;28;20050;-82
2022/03/19 10:09:56;;;;;;;15.68;13.57;;;;;;;13.23;42.28;102975.78;4971122;28;20066;-83
2022/03/19 10:12:27;;;;;;;13.80;12.38;;;;;;;13.41;41.83;103001.31;4969499;28;20114;-83
2022/03/19 10:14:56;;;;;;;16.90;12.93;;;;;;;13.37;41.68;102985.59;4969619;28;20057;-81
2022/03/19 10:17:31;;;;;;;13.88;12.30;;;;;;;13.64;41.50;102990.97;4970022;28;20061;-83
2022/03/19 10:20:03;;;;;;;13.18;11.88;;;;;;;13.78;41.02;102992.78;4970211;28;20081;-84
2022/03/19 10:22:31;;;;;;;15.90;12.95;;;;;;;13.65;40.74;102937.50;4968802;28;20085;-84
2022/03/19 10:25:00;;;;;;;13.05;11.68;;;;;;;13.98;40.73;102962.97;4975686;28;20509;-84
2022/03/19 10:27:36;;;;;;;16.33;12.90;;;;;;;13.90;39.13;102904.72;4983563;28;20050;-85
2022/03/19 10:30:21;;;;;;;15.55;11.45;;;;;;;14.43;38.53;102974.19;4954363;29;20506;-85
2022/03/19 10:32:57;;;;;;;12.85;11.48;;;;;;;14.15;37.80;102879.03;4937081;29;20063;-85
2022/03/19 10:35:34;;;;;;;14.00;12.27;;;;;;;14.89;37.86;102962.19;4939592;29;20090;-86
2022/03/19 10:38:19;;;;;;;13.27;11.88;;;;;;;14.90;36.63;102961.22;4935476;29;20047;-85
2022/03/19 10:40:47;;;;;;;14.15;11.88;;;;;;;14.70;37.01;102901.97;4932498;29;20126;-84
2022/03/19 10:43:18;;;;;;;19.98;10.82;;;;;;;15.17;35.90;102953.94;4930791;29;20440;-84
2022/03/19 10:45:48;;;;;;;13.90;11.45;;;;;;;15.12;35.97;102964.13;4931532;29;20494;-84
2022/03/19 10:48:26;;;;;;;18.83;12.23;;;;;;;14.73;35.25;102898.22;4930324;29;20044;-85
2022/03/19 10:50:53;;;;;;;16.92;11.65;;;;;;;14.57;35.47;102820.09;4930098;29;20052;-85
2022/03/19 10:53:22;;;;;;;14.07;11.68;;;;;;;15.11;35.55;102908.03;4930113;29;20450;-85
2022/03/19 10:55:49;;;;;;;13.32;11.20;;;;;;;15.31;35.76;102944.06;4931212;29;20515;-83
2022/03/19 10:58:16;;;;;;;11.68;10.32;;;;;;;15.10;35.47;102871.56;4931088;29;20142;-84
2022/03/19 11:01:03;;;;;;;13.23;10.77;;;;;;;15.62;35.33;102936.47;4930060;29;20048;-84
2022/03/19 11:03:34;;;;;;;12.80;11.43;;;;;;;15.83;34.92;102934.94;4930744;29;20047;-84
2022/03/19 11:06:07;;;;;;;11.77;10.63;;;;;;;15.97;34.30;102937.44;4931085;29;20051;-84
2022/03/19 11:08:45;;;;;;;12.77;11.05;;;;;;;15.03;35.08;102757.94;4931238;28;20248;-85
2022/03/19 11:11:32;;;;;;;11.88;9.75;;;;;;;16.18;33.88;102904.63;4930737;29;20047;-83
2022/03/19 11:14:02;;;;;;;14.73;10.40;;;;;;;15.80;34.45;102806.59;4933208;29;20450;-85
2022/03/19 11:16:35;;;;;;;11.35;9.50;;;;;;;16.32;33.06;102877.63;4930669;29;20055;-85
2022/03/19 11:19:03;;;;;;;11.25;10.10;;;;;;;16.20;32.74;102824.97;4930574;29;20158;-85
2022/03/19 11:21:32;;;;;;;13.25;9.93;;;;;;;16.63;32.04;102881.44;4930651;29;20056;-84
2022/03/19 11:24:19;;;;;;;13.00;10.45;;;;;;;16.63;31.67;102870.72;4930704;29;20058;-85
2022/03/19 11:26:48;;;;;;;10.57;9.35;;;;;;;16.87;31.71;102884.03;4929249;29;20421;-84
2022/03/19 11:29:14;;;;;;;10.30;9.10;;;;;;;17.14;31.33;102884.63;4956281;28;20516;-85
2022/03/19 11:31:43;;;;;;;11.50;10.07;;;;;;;15.79;30.97;102661.13;4967579;28;20118;-84
2022/03/19 11:34:16;;;;;;;11.15;10.02;;;;;;;17.26;31.65;102889.84;4969154;28;20050;-84
2022/03/19 11:36:57;;;;;;;11.80;10.60;;;;;;;17.38;31.22;102901.44;4968905;28;20111;-85
2022/03/19 11:39:25;;;;;;;14.73;10.63;;;;;;;17.44;31.92;102902.75;4983462;28;20057;-84